sensor_id;sensor_type;location;lat;lon;timestamp;P1;durP1;ratioP1;P2;durP2;ratioP2
17604;SDS011;8921;50.964;6.800;2023-01-04T00:00:15;5.90;;;1.60;;
17604;SDS011;8921;50.964;6.800;2023-01-04T00:02:43;13.57;;;1.80;;
17604;SDS011;8921;50.964;6.800;2023-01-04T00:05:11;4.60;;;1.60;;
17604;SDS011;8921;50.964;6.800;2023-01-04T00:07:40;5.03;;;1.60;;
17604;SDS011;8921;50.964;6.800;2023-01-04T00:10:08;6.70;;;1.70;;
17604;SDS011;8921;50.964;6.800;2023-01-04T00:12:36;5.07;;;2.23;;
17604;SDS011;8921;50.964;6.800;2023-01-04T00:15:05;8.87;;;2.00;;
17604;SDS011;8921;50.964;6.800;2023-01-04T00:17:33;6.17;;;1.77;;
17604;SDS011;8921;50.964;6.800;2023-01-04T00:20:02;5.10;;;1.90;;
17604;SDS011;8921;50.964;6.800;2023-01-04T00:22:33;4.10;;;1.97;;
17604;SDS011;8921;50.964;6.800;2023-01-04T00:25:01;12.07;;;2.77;;
17604;SDS011;8921;50.964;6.800;2023-01-04T00:27:29;8.80;;;2.10;;
17604;SDS011;8921;50.964;6.800;2023-01-04T00:29:58;11.70;;;2.73;;
17604;SDS011;8921;50.964;6.800;2023-01-04T00:32:26;5.60;;;1.80;;
17604;SDS011;8921;50.964;6.800;2023-01-04T00:34:54;6.00;;;2.13;;
17604;SDS011;8921;50.964;6.800;2023-01-04T00:37:23;6.93;;;1.80;;
17604;SDS011;8921;50.964;6.800;2023-01-04T00:39:51;6.00;;;2.27;;
17604;SDS011;8921;50.964;6.800;2023-01-04T00:42:19;5.13;;;1.57;;
17604;SDS011;8921;50.964;6.800;2023-01-04T00:44:47;7.60;;;2.07;;
17604;SDS011;8921;50.964;6.800;2023-01-04T00:47:16;8.90;;;2.17;;
17604;SDS011;8921;50.964;6.800;2023-01-04T00:49:44;5.80;;;1.60;;
17604;SDS011;8921;50.964;6.800;2023-01-04T00:52:12;4.53;;;1.60;;
17604;SDS011;8921;50.964;6.800;2023-01-04T00:54:40;5.70;;;1.60;;
17604;SDS011;8921;50.964;6.800;2023-01-04T00:57:09;6.80;;;1.73;;
17604;SDS011;8921;50.964;6.800;2023-01-04T00:59:37;4.30;;;1.70;;
17604;SDS011;8921;50.964;6.800;2023-01-04T01:02:05;6.47;;;1.77;;
17604;SDS011;8921;50.964;6.800;2023-01-04T01:04:34;5.30;;;2.00;;
17604;SDS011;8921;50.964;6.800;2023-01-04T01:07:02;8.97;;;1.87;;
17604;SDS011;8921;50.964;6.800;2023-01-04T01:09:30;11.53;;;2.47;;
17604;SDS011;8921;50.964;6.800;2023-01-04T01:11:58;5.70;;;1.80;;
17604;SDS011;8921;50.964;6.800;2023-01-04T01:14:27;5.00;;;1.50;;
17604;SDS011;8921;50.964;6.800;2023-01-04T01:16:55;10.10;;;1.97;;
17604;SDS011;8921;50.964;6.800;2023-01-04T01:19:24;4.90;;;1.70;;
17604;SDS011;8921;50.964;6.800;2023-01-04T01:21:56;5.10;;;1.80;;
17604;SDS011;8921;50.964;6.800;2023-01-04T01:24:23;6.80;;;2.60;;
17604;SDS011;8921;50.964;6.800;2023-01-04T01:26:51;5.33;;;2.00;;
17604;SDS011;8921;50.964;6.800;2023-01-04T01:29:19;14.20;;;2.27;;
17604;SDS011;8921;50.964;6.800;2023-01-04T01:31:48;12.50;;;2.37;;
17604;SDS011;8921;50.964;6.800;2023-01-04T01:34:16;6.70;;;2.03;;
17604;SDS011;8921;50.964;6.800;2023-01-04T01:36:44;8.43;;;2.20;;
17604;SDS011;8921;50.964;6.800;2023-01-04T01:39:13;10.70;;;2.00;;
17604;SDS011;8921;50.964;6.800;2023-01-04T01:41:41;6.43;;;2.43;;
17604;SDS011;8921;50.964;6.800;2023-01-04T01:46:46;7.60;;;2.20;;
17604;SDS011;8921;50.964;6.800;2023-01-04T01:49:45;11.13;;;2.87;;
17604;SDS011;8921;50.964;6.800;2023-01-04T01:51:55;5.73;;;1.90;;
17604;SDS011;8921;50.964;6.800;2023-01-04T01:54:24;5.67;;;2.10;;
17604;SDS011;8921;50.964;6.800;2023-01-04T01:56:51;12.83;;;2.03;;
17604;SDS011;8921;50.964;6.800;2023-01-04T01:59:19;5.13;;;1.93;;
17604;SDS011;8921;50.964;6.800;2023-01-04T02:01:47;5.00;;;1.83;;
17604;SDS011;8921;50.964;6.800;2023-01-04T02:04:15;9.70;;;2.00;;
17604;SDS011;8921;50.964;6.800;2023-01-04T02:06:45;5.10;;;1.77;;
17604;SDS011;8921;50.964;6.800;2023-01-04T02:09:12;6.23;;;1.50;;
17604;SDS011;8921;50.964;6.800;2023-01-04T02:11:40;4.80;;;1.67;;
17604;SDS011;8921;50.964;6.800;2023-01-04T02:14:09;8.67;;;1.53;;
17604;SDS011;8921;50.964;6.800;2023-01-04T02:17:05;4.30;;;1.60;;
17604;SDS011;8921;50.964;6.800;2023-01-04T02:25:18;4.20;;;1.53;;
17604;SDS011;8921;50.964;6.800;2023-01-04T02:28:07;5.97;;;1.40;;
17604;SDS011;8921;50.964;6.800;2023-01-04T02:38:49;7.90;;;1.77;;
17604;SDS011;8921;50.964;6.800;2023-01-04T02:41:39;4.73;;;1.33;;
17604;SDS011;8921;50.964;6.800;2023-01-04T02:44:13;4.57;;;1.50;;
17604;SDS011;8921;50.964;6.800;2023-01-04T02:47:00;4.77;;;1.27;;
17604;SDS011;8921;50.964;6.800;2023-01-04T02:49:28;5.87;;;1.60;;
17604;SDS011;8921;50.964;6.800;2023-01-04T02:52:15;4.50;;;1.27;;
17604;SDS011;8921;50.964;6.800;2023-01-04T02:54:43;6.20;;;1.43;;
17604;SDS011;8921;50.964;6.800;2023-01-04T02:57:23;6.87;;;1.10;;
17604;SDS011;8921;50.964;6.800;2023-01-04T03:06:18;4.03;;;1.13;;
17604;SDS011;8921;50.964;6.800;2023-01-04T03:11:18;2.87;;;1.10;;
17604;SDS011;8921;50.964;6.800;2023-01-04T03:16:42;2.87;;;1.17;;
17604;SDS011;8921;50.964;6.800;2023-01-04T03:19:10;3.57;;;1.10;;
17604;SDS011;8921;50.964;6.800;2023-01-04T03:21:41;3.00;;;1.10;;
17604;SDS011;8921;50.964;6.800;2023-01-04T03:24:07;2.70;;;0.90;;
17604;SDS011;8921;50.964;6.800;2023-01-04T03:26:55;2.87;;;0.90;;
17604;SDS011;8921;50.964;6.800;2023-01-04T03:29:51;6.97;;;1.03;;
17604;SDS011;8921;50.964;6.800;2023-01-04T03:32:47;4.13;;;1.20;;
17604;SDS011;8921;50.964;6.800;2023-01-04T03:41:04;2.57;;;0.90;;
17604;SDS011;8921;50.964;6.800;2023-01-04T03:43:53;4.73;;;1.10;;
17604;SDS011;8921;50.964;6.800;2023-01-04T03:46:48;2.90;;;0.90;;
17604;SDS011;8921;50.964;6.800;2023-01-04T03:49:42;2.60;;;0.90;;
17604;SDS011;8921;50.964;6.800;2023-01-04T03:52:08;2.40;;;0.80;;
17604;SDS011;8921;50.964;6.800;2023-01-04T03:54:37;2.93;;;1.00;;
17604;SDS011;8921;50.964;6.800;2023-01-04T03:57:05;5.97;;;1.10;;
17604;SDS011;8921;50.964;6.800;2023-01-04T03:59:34;2.60;;;0.90;;
17604;SDS011;8921;50.964;6.800;2023-01-04T04:02:01;2.50;;;0.90;;
17604;SDS011;8921;50.964;6.800;2023-01-04T04:04:29;2.33;;;0.80;;
17604;SDS011;8921;50.964;6.800;2023-01-04T04:07:16;2.50;;;0.80;;
17604;SDS011;8921;50.964;6.800;2023-01-04T04:10:03;2.70;;;1.00;;
17604;SDS011;8921;50.964;6.800;2023-01-04T04:12:32;3.77;;;1.20;;
17604;SDS011;8921;50.964;6.800;2023-01-04T04:15:00;8.20;;;2.93;;
17604;SDS011;8921;50.964;6.800;2023-01-04T04:17:28;3.00;;;1.00;;
17604;SDS011;8921;50.964;6.800;2023-01-04T04:19:57;3.80;;;1.27;;
17604;SDS011;8921;50.964;6.800;2023-01-04T04:22:25;3.10;;;1.00;;
17604;SDS011;8921;50.964;6.800;2023-01-04T04:24:53;5.00;;;1.53;;
17604;SDS011;8921;50.964;6.800;2023-01-04T04:27:22;4.03;;;1.43;;
17604;SDS011;8921;50.964;6.800;2023-01-04T04:29:50;3.00;;;1.20;;
17604;SDS011;8921;50.964;6.800;2023-01-04T04:32:18;2.90;;;1.10;;
17604;SDS011;8921;50.964;6.800;2023-01-04T04:34:46;2.77;;;1.00;;
17604;SDS011;8921;50.964;6.800;2023-01-04T04:37:15;2.60;;;1.00;;
17604;SDS011;8921;50.964;6.800;2023-01-04T04:39:43;2.30;;;0.80;;
17604;SDS011;8921;50.964;6.800;2023-01-04T04:42:11;2.30;;;0.80;;
17604;SDS011;8921;50.964;6.800;2023-01-04T04:44:40;2.30;;;0.80;;
17604;SDS011;8921;50.964;6.800;2023-01-04T04:47:08;3.40;;;1.27;;
17604;SDS011;8921;50.964;6.800;2023-01-04T04:49:36;3.13;;;1.20;;
17604;SDS011;8921;50.964;6.800;2023-01-04T04:52:04;3.40;;;1.30;;
17604;SDS011;8921;50.964;6.800;2023-01-04T04:54:33;3.30;;;1.13;;
17604;SDS011;8921;50.964;6.800;2023-01-04T04:57:01;2.83;;;1.23;;
17604;SDS011;8921;50.964;6.800;2023-01-04T04:59:29;3.67;;;1.23;;
17604;SDS011;8921;50.964;6.800;2023-01-04T05:01:57;2.80;;;1.03;;
17604;SDS011;8921;50.964;6.800;2023-01-04T05:04:26;3.33;;;1.00;;
17604;SDS011;8921;50.964;6.800;2023-01-04T05:06:54;2.33;;;0.80;;
17604;SDS011;8921;50.964;6.800;2023-01-04T05:09:22;3.20;;;0.90;;
17604;SDS011;8921;50.964;6.800;2023-01-04T05:11:50;3.37;;;1.00;;
17604;SDS011;8921;50.964;6.800;2023-01-04T05:14:37;5.50;;;1.13;;
17604;SDS011;8921;50.964;6.800;2023-01-04T05:17:06;4.83;;;1.93;;
17604;SDS011;8921;50.964;6.800;2023-01-04T05:19:34;3.00;;;1.00;;
17604;SDS011;8921;50.964;6.800;2023-01-04T05:22:02;2.87;;;0.90;;
17604;SDS011;8921;50.964;6.800;2023-01-04T05:24:30;2.50;;;0.83;;
17604;SDS011;8921;50.964;6.800;2023-01-04T05:26:59;4.53;;;0.90;;
17604;SDS011;8921;50.964;6.800;2023-01-04T05:29:27;2.60;;;0.90;;
17604;SDS011;8921;50.964;6.800;2023-01-04T05:32:14;2.50;;;0.80;;
17604;SDS011;8921;50.964;6.800;2023-01-04T05:34:42;2.20;;;0.80;;
17604;SDS011;8921;50.964;6.800;2023-01-04T05:37:10;2.30;;;0.90;;
17604;SDS011;8921;50.964;6.800;2023-01-04T05:39:38;2.30;;;0.80;;
17604;SDS011;8921;50.964;6.800;2023-01-04T05:42:07;2.27;;;0.70;;
17604;SDS011;8921;50.964;6.800;2023-01-04T05:44:50;2.37;;;0.80;;
17604;SDS011;8921;50.964;6.800;2023-01-04T05:47:18;3.23;;;1.30;;
17604;SDS011;8921;50.964;6.800;2023-01-04T05:49:47;4.23;;;1.40;;
17604;SDS011;8921;50.964;6.800;2023-01-04T05:52:15;4.43;;;1.47;;
17604;SDS011;8921;50.964;6.800;2023-01-04T05:54:43;2.60;;;0.90;;
17604;SDS011;8921;50.964;6.800;2023-01-04T05:57:12;3.00;;;1.10;;
17604;SDS011;8921;50.964;6.800;2023-01-04T05:59:40;5.57;;;1.60;;
17604;SDS011;8921;50.964;6.800;2023-01-04T06:02:16;2.63;;;1.00;;
17604;SDS011;8921;50.964;6.800;2023-01-04T06:04:45;3.53;;;1.37;;
17604;SDS011;8921;50.964;6.800;2023-01-04T06:07:14;3.00;;;1.00;;
17604;SDS011;8921;50.964;6.800;2023-01-04T06:09:42;2.40;;;0.80;;
17604;SDS011;8921;50.964;6.800;2023-01-04T06:12:10;2.30;;;0.80;;
17604;SDS011;8921;50.964;6.800;2023-01-04T06:14:38;2.30;;;0.80;;
17604;SDS011;8921;50.964;6.800;2023-01-04T06:17:06;3.47;;;0.80;;
17604;SDS011;8921;50.964;6.800;2023-01-04T06:19:35;2.30;;;0.80;;
17604;SDS011;8921;50.964;6.800;2023-01-04T06:22:03;2.70;;;0.80;;
17604;SDS011;8921;50.964;6.800;2023-01-04T06:24:31;2.50;;;0.80;;
17604;SDS011;8921;50.964;6.800;2023-01-04T06:27:00;3.83;;;0.90;;
17604;SDS011;8921;50.964;6.800;2023-01-04T06:29:28;3.20;;;1.10;;
17604;SDS011;8921;50.964;6.800;2023-01-04T06:31:56;3.00;;;1.10;;
17604;SDS011;8921;50.964;6.800;2023-01-04T06:34:24;3.83;;;1.37;;
17604;SDS011;8921;50.964;6.800;2023-01-04T06:36:53;3.47;;;1.20;;
17604;SDS011;8921;50.964;6.800;2023-01-04T06:39:21;3.60;;;1.07;;
17604;SDS011;8921;50.964;6.800;2023-01-04T06:41:49;2.60;;;0.90;;
17604;SDS011;8921;50.964;6.800;2023-01-04T06:44:17;2.83;;;0.80;;
17604;SDS011;8921;50.964;6.800;2023-01-04T06:46:46;3.80;;;0.80;;
17604;SDS011;8921;50.964;6.800;2023-01-04T06:49:14;3.10;;;0.90;;
17604;SDS011;8921;50.964;6.800;2023-01-04T06:51:42;2.40;;;0.80;;
17604;SDS011;8921;50.964;6.800;2023-01-04T06:54:11;2.30;;;0.90;;
17604;SDS011;8921;50.964;6.800;2023-01-04T06:56:39;2.60;;;0.90;;
17604;SDS011;8921;50.964;6.800;2023-01-04T06:59:07;4.90;;;1.10;;
17604;SDS011;8921;50.964;6.800;2023-01-04T07:01:35;3.13;;;1.17;;
17604;SDS011;8921;50.964;6.800;2023-01-04T07:04:04;3.20;;;1.20;;
17604;SDS011;8921;50.964;6.800;2023-01-04T07:06:32;2.40;;;0.80;;
17604;SDS011;8921;50.964;6.800;2023-01-04T07:09:00;2.40;;;0.83;;
17604;SDS011;8921;50.964;6.800;2023-01-04T07:11:28;2.60;;;0.90;;
17604;SDS011;8921;50.964;6.800;2023-01-04T07:13:57;2.40;;;0.80;;
17604;SDS011;8921;50.964;6.800;2023-01-04T07:16:25;2.30;;;0.80;;
17604;SDS011;8921;50.964;6.800;2023-01-04T07:18:53;2.40;;;0.80;;
17604;SDS011;8921;50.964;6.800;2023-01-04T07:21:22;2.67;;;0.90;;
17604;SDS011;8921;50.964;6.800;2023-01-04T07:23:50;3.00;;;0.90;;
17604;SDS011;8921;50.964;6.800;2023-01-04T07:26:18;3.80;;;0.93;;
17604;SDS011;8921;50.964;6.800;2023-01-04T07:28:46;3.47;;;0.90;;
17604;SDS011;8921;50.964;6.800;2023-01-04T07:31:33;2.40;;;0.90;;
17604;SDS011;8921;50.964;6.800;2023-01-04T07:34:02;2.50;;;0.90;;
17604;SDS011;8921;50.964;6.800;2023-01-04T07:36:30;2.60;;;0.90;;
17604;SDS011;8921;50.964;6.800;2023-01-04T07:38:59;2.70;;;0.80;;
17604;SDS011;8921;50.964;6.800;2023-01-04T07:41:26;2.60;;;0.90;;
17604;SDS011;8921;50.964;6.800;2023-01-04T07:43:55;2.50;;;0.80;;
17604;SDS011;8921;50.964;6.800;2023-01-04T07:46:23;2.40;;;0.90;;
17604;SDS011;8921;50.964;6.800;2023-01-04T07:48:51;2.40;;;0.80;;
17604;SDS011;8921;50.964;6.800;2023-01-04T07:51:19;2.50;;;0.93;;
17604;SDS011;8921;50.964;6.800;2023-01-04T07:53:48;2.37;;;0.80;;
17604;SDS011;8921;50.964;6.800;2023-01-04T07:56:16;3.83;;;0.87;;
17604;SDS011;8921;50.964;6.800;2023-01-04T07:58:44;2.67;;;0.87;;
17604;SDS011;8921;50.964;6.800;2023-01-04T08:01:16;2.30;;;0.80;;
17604;SDS011;8921;50.964;6.800;2023-01-04T08:03:44;2.67;;;0.80;;
17604;SDS011;8921;50.964;6.800;2023-01-04T08:06:12;2.50;;;0.90;;
17604;SDS011;8921;50.964;6.800;2023-01-04T08:08:40;2.30;;;0.80;;
17604;SDS011;8921;50.964;6.800;2023-01-04T08:11:13;2.40;;;0.90;;
17604;SDS011;8921;50.964;6.800;2023-01-04T08:13:37;2.40;;;0.80;;
17604;SDS011;8921;50.964;6.800;2023-01-04T08:16:05;2.33;;;0.80;;
17604;SDS011;8921;50.964;6.800;2023-01-04T08:18:33;2.40;;;0.90;;
17604;SDS011;8921;50.964;6.800;2023-01-04T08:21:05;2.70;;;1.00;;
17604;SDS011;8921;50.964;6.800;2023-01-04T08:23:33;3.17;;;1.13;;
17604;SDS011;8921;50.964;6.800;2023-01-04T08:26:05;4.23;;;1.07;;
17604;SDS011;8921;50.964;6.800;2023-01-04T08:28:32;4.03;;;1.37;;
17604;SDS011;8921;50.964;6.800;2023-01-04T08:31:19;3.67;;;1.37;;
17604;SDS011;8921;50.964;6.800;2023-01-04T08:33:38;2.70;;;1.00;;
17604;SDS011;8921;50.964;6.800;2023-01-04T08:36:16;2.90;;;0.90;;
17604;SDS011;8921;50.964;6.800;2023-01-04T08:38:40;4.90;;;1.10;;
17604;SDS011;8921;50.964;6.800;2023-01-04T08:41:08;2.77;;;0.97;;
17604;SDS011;8921;50.964;6.800;2023-01-04T08:43:36;2.60;;;0.93;;
17604;SDS011;8921;50.964;6.800;2023-01-04T08:46:05;2.40;;;0.90;;
17604;SDS011;8921;50.964;6.800;2023-01-04T08:48:33;3.00;;;0.97;;
17604;SDS011;8921;50.964;6.800;2023-01-04T08:51:02;2.50;;;0.90;;
17604;SDS011;8921;50.964;6.800;2023-01-04T08:53:29;2.87;;;1.00;;
17604;SDS011;8921;50.964;6.800;2023-01-04T08:55:58;2.60;;;0.90;;
17604;SDS011;8921;50.964;6.800;2023-01-04T08:58:26;2.90;;;0.90;;
17604;SDS011;8921;50.964;6.800;2023-01-04T09:01:00;4.30;;;1.00;;
17604;SDS011;8921;50.964;6.800;2023-01-04T09:03:28;2.40;;;0.90;;
17604;SDS011;8921;50.964;6.800;2023-01-04T09:06:06;2.70;;;1.00;;
17604;SDS011;8921;50.964;6.800;2023-01-04T09:08:34;2.40;;;0.80;;
17604;SDS011;8921;50.964;6.800;2023-01-04T09:11:02;3.00;;;0.90;;
17604;SDS011;8921;50.964;6.800;2023-01-04T09:13:31;2.50;;;0.93;;
17604;SDS011;8921;50.964;6.800;2023-01-04T09:16:02;4.90;;;0.90;;
17604;SDS011;8921;50.964;6.800;2023-01-04T09:18:29;2.40;;;0.90;;
17604;SDS011;8921;50.964;6.800;2023-01-04T09:20:57;3.07;;;0.93;;
17604;SDS011;8921;50.964;6.800;2023-01-04T09:23:26;4.70;;;0.80;;
17604;SDS011;8921;50.964;6.800;2023-01-04T09:25:54;2.80;;;0.90;;
17604;SDS011;8921;50.964;6.800;2023-01-04T09:28:22;3.40;;;0.80;;
17604;SDS011;8921;50.964;6.800;2023-01-04T09:30:51;2.90;;;0.90;;
17604;SDS011;8921;50.964;6.800;2023-01-04T09:33:19;3.57;;;0.97;;
17604;SDS011;8921;50.964;6.800;2023-01-04T09:35:47;2.40;;;0.80;;
17604;SDS011;8921;50.964;6.800;2023-01-04T09:38:15;5.80;;;3.30;;
17604;SDS011;8921;50.964;6.800;2023-01-04T09:40:53;2.80;;;0.90;;
17604;SDS011;8921;50.964;6.800;2023-01-04T09:43:21;4.13;;;1.00;;
17604;SDS011;8921;50.964;6.800;2023-01-04T09:45:51;3.10;;;1.10;;
17604;SDS011;8921;50.964;6.800;2023-01-04T09:48:21;3.00;;;1.07;;
17604;SDS011;8921;50.964;6.800;2023-01-04T09:53:23;4.10;;;1.20;;
17604;SDS011;8921;50.964;6.800;2023-01-04T09:55:51;3.37;;;1.00;;
17604;SDS011;8921;50.964;6.800;2023-01-04T09:58:26;3.07;;;0.83;;
17604;SDS011;8921;50.964;6.800;2023-01-04T10:01:04;3.60;;;1.00;;
17604;SDS011;8921;50.964;6.800;2023-01-04T10:03:31;3.50;;;1.00;;
17604;SDS011;8921;50.964;6.800;2023-01-04T10:06:01;3.67;;;0.90;;
17604;SDS011;8921;50.964;6.800;2023-01-04T10:08:29;4.87;;;1.10;;
17604;SDS011;8921;50.964;6.800;2023-01-04T10:11:01;2.60;;;0.90;;
17604;SDS011;8921;50.964;6.800;2023-01-04T10:19:18;5.40;;;2.13;;
17604;SDS011;8921;50.964;6.800;2023-01-04T10:22:04;3.60;;;1.00;;
17604;SDS011;8921;50.964;6.800;2023-01-04T10:32:37;4.73;;;1.60;;
17604;SDS011;8921;50.964;6.800;2023-01-04T10:35:31;6.40;;;1.20;;
17604;SDS011;8921;50.964;6.800;2023-01-04T10:37:56;3.20;;;1.30;;
17604;SDS011;8921;50.964;6.800;2023-01-04T10:40:24;2.43;;;0.80;;
17604;SDS011;8921;50.964;6.800;2023-01-04T10:42:58;3.20;;;1.03;;
17604;SDS011;8921;50.964;6.800;2023-01-04T10:51:00;3.57;;;1.03;;
17604;SDS011;8921;50.964;6.800;2023-01-04T10:56:17;3.47;;;0.90;;
17604;SDS011;8921;50.964;6.800;2023-01-04T10:58:47;3.87;;;1.20;;
17604;SDS011;8921;50.964;6.800;2023-01-04T11:06:24;3.77;;;0.93;;
17604;SDS011;8921;50.964;6.800;2023-01-04T11:09:03;2.80;;;1.00;;
17604;SDS011;8921;50.964;6.800;2023-01-04T11:11:43;4.20;;;1.20;;
17604;SDS011;8921;50.964;6.800;2023-01-04T11:14:11;11.77;;;1.10;;
17604;SDS011;8921;50.964;6.800;2023-01-04T11:16:42;3.93;;;2.00;;
17604;SDS011;8921;50.964;6.800;2023-01-04T11:19:08;2.80;;;0.90;;
17604;SDS011;8921;50.964;6.800;2023-01-04T11:21:38;3.00;;;1.20;;
17604;SDS011;8921;50.964;6.800;2023-01-04T11:24:05;8.80;;;1.50;;
17604;SDS011;8921;50.964;6.800;2023-01-04T11:26:34;2.80;;;0.90;;
17604;SDS011;8921;50.964;6.800;2023-01-04T11:34:42;2.50;;;0.87;;
17604;SDS011;8921;50.964;6.800;2023-01-04T11:37:25;2.60;;;0.90;;
17604;SDS011;8921;50.964;6.800;2023-01-04T11:40:04;2.70;;;0.80;;
17604;SDS011;8921;50.964;6.800;2023-01-04T11:42:20;2.87;;;0.80;;
17604;SDS011;8921;50.964;6.800;2023-01-04T11:44:57;2.50;;;0.80;;
17604;SDS011;8921;50.964;6.800;2023-01-04T11:47:25;2.70;;;1.10;;
17604;SDS011;8921;50.964;6.800;2023-01-04T11:49:54;5.70;;;1.00;;
17604;SDS011;8921;50.964;6.800;2023-01-04T11:55:03;2.47;;;0.80;;
17604;SDS011;8921;50.964;6.800;2023-01-04T11:57:24;2.60;;;0.80;;
17604;SDS011;8921;50.964;6.800;2023-01-04T12:00:08;2.93;;;0.73;;
17604;SDS011;8921;50.964;6.800;2023-01-04T12:02:36;2.53;;;0.90;;
17604;SDS011;8921;50.964;6.800;2023-01-04T12:05:09;2.37;;;0.80;;
17604;SDS011;8921;50.964;6.800;2023-01-04T12:07:33;3.27;;;1.10;;
17604;SDS011;8921;50.964;6.800;2023-01-04T12:10:05;3.80;;;1.30;;
17604;SDS011;8921;50.964;6.800;2023-01-04T12:12:30;2.70;;;1.10;;
17604;SDS011;8921;50.964;6.800;2023-01-04T12:15:04;2.90;;;0.90;;
17604;SDS011;8921;50.964;6.800;2023-01-04T12:18:06;3.30;;;0.80;;
17604;SDS011;8921;50.964;6.800;2023-01-04T12:20:15;2.73;;;0.87;;
17604;SDS011;8921;50.964;6.800;2023-01-04T12:22:43;2.50;;;0.80;;
17604;SDS011;8921;50.964;6.800;2023-01-04T12:25:31;2.70;;;0.80;;
17604;SDS011;8921;50.964;6.800;2023-01-04T12:27:57;2.90;;;0.90;;
17604;SDS011;8921;50.964;6.800;2023-01-04T12:30:41;3.07;;;1.00;;
17604;SDS011;8921;50.964;6.800;2023-01-04T12:36:00;2.60;;;1.03;;
17604;SDS011;8921;50.964;6.800;2023-01-04T12:44:02;2.60;;;0.90;;
17604;SDS011;8921;50.964;6.800;2023-01-04T12:57:22;2.43;;;0.80;;
17604;SDS011;8921;50.964;6.800;2023-01-04T13:00:14;2.60;;;0.80;;
17604;SDS011;8921;50.964;6.800;2023-01-04T13:02:32;2.40;;;0.80;;
17604;SDS011;8921;50.964;6.800;2023-01-04T13:05:03;3.57;;;1.73;;
17604;SDS011;8921;50.964;6.800;2023-01-04T13:07:29;8.27;;;2.60;;
17604;SDS011;8921;50.964;6.800;2023-01-04T13:09:57;3.40;;;1.27;;
17604;SDS011;8921;50.964;6.800;2023-01-04T13:15:03;4.33;;;1.60;;
17604;SDS011;8921;50.964;6.800;2023-01-04T13:17:30;2.83;;;0.90;;
17604;SDS011;8921;50.964;6.800;2023-01-04T13:20:07;3.90;;;1.43;;
17604;SDS011;8921;50.964;6.800;2023-01-04T13:22:29;2.57;;;0.80;;
17604;SDS011;8921;50.964;6.800;2023-01-04T13:24:57;2.60;;;0.90;;
17604;SDS011;8921;50.964;6.800;2023-01-04T13:27:25;3.33;;;0.90;;
17604;SDS011;8921;50.964;6.800;2023-01-04T13:29:54;2.50;;;0.80;;
17604;SDS011;8921;50.964;6.800;2023-01-04T13:34:59;2.30;;;0.80;;
17604;SDS011;8921;50.964;6.800;2023-01-04T13:48:37;2.60;;;1.00;;
17604;SDS011;8921;50.964;6.800;2023-01-04T13:51:12;2.40;;;0.80;;
17604;SDS011;8921;50.964;6.800;2023-01-04T13:53:55;2.60;;;0.80;;
17604;SDS011;8921;50.964;6.800;2023-01-04T13:56:23;2.40;;;0.80;;
17604;SDS011;8921;50.964;6.800;2023-01-04T13:58:50;2.40;;;0.80;;
17604;SDS011;8921;50.964;6.800;2023-01-04T14:01:22;2.40;;;0.80;;
17604;SDS011;8921;50.964;6.800;2023-01-04T14:03:53;2.30;;;0.80;;
17604;SDS011;8921;50.964;6.800;2023-01-04T14:24:48;2.50;;;0.80;;
17604;SDS011;8921;50.964;6.800;2023-01-04T14:27:34;2.50;;;0.80;;
17604;SDS011;8921;50.964;6.800;2023-01-04T14:30:00;2.50;;;0.90;;
17604;SDS011;8921;50.964;6.800;2023-01-04T14:32:27;2.70;;;0.80;;
17604;SDS011;8921;50.964;6.800;2023-01-04T14:34:55;2.40;;;0.80;;
17604;SDS011;8921;50.964;6.800;2023-01-04T14:37:24;2.40;;;0.80;;
17604;SDS011;8921;50.964;6.800;2023-01-04T14:39:52;2.33;;;0.80;;
17604;SDS011;8921;50.964;6.800;2023-01-04T14:42:26;2.70;;;0.90;;
17604;SDS011;8921;50.964;6.800;2023-01-04T14:44:51;2.60;;;0.80;;
17604;SDS011;8921;50.964;6.800;2023-01-04T14:47:19;8.47;;;3.57;;
17604;SDS011;8921;50.964;6.800;2023-01-04T14:49:48;3.60;;;0.90;;
17604;SDS011;8921;50.964;6.800;2023-01-04T14:52:20;2.80;;;0.90;;
17604;SDS011;8921;50.964;6.800;2023-01-04T14:54:47;2.43;;;0.80;;
17604;SDS011;8921;50.964;6.800;2023-01-04T14:57:15;3.33;;;0.83;;
17604;SDS011;8921;50.964;6.800;2023-01-04T14:59:44;2.53;;;0.83;;
17604;SDS011;8921;50.964;6.800;2023-01-04T15:02:12;3.37;;;1.10;;
17604;SDS011;8921;50.964;6.800;2023-01-04T15:04:40;3.47;;;1.53;;
17604;SDS011;8921;50.964;6.800;2023-01-04T15:10:06;3.67;;;1.33;;
17604;SDS011;8921;50.964;6.800;2023-01-04T15:12:33;2.40;;;0.90;;
17604;SDS011;8921;50.964;6.800;2023-01-04T15:15:04;3.33;;;1.30;;
17604;SDS011;8921;50.964;6.800;2023-01-04T15:17:32;2.60;;;0.90;;
17604;SDS011;8921;50.964;6.800;2023-01-04T15:20:00;2.60;;;0.90;;
17604;SDS011;8921;50.964;6.800;2023-01-04T15:22:29;3.13;;;0.90;;
17604;SDS011;8921;50.964;6.800;2023-01-04T15:24:57;2.50;;;0.87;;
17604;SDS011;8921;50.964;6.800;2023-01-04T15:27:28;2.40;;;0.90;;
17604;SDS011;8921;50.964;6.800;2023-01-04T15:29:56;4.90;;;0.90;;
17604;SDS011;8921;50.964;6.800;2023-01-04T15:32:25;2.70;;;0.97;;
17604;SDS011;8921;50.964;6.800;2023-01-04T15:34:53;2.87;;;1.00;;
17604;SDS011;8921;50.964;6.800;2023-01-04T15:37:21;2.40;;;0.90;;
17604;SDS011;8921;50.964;6.800;2023-01-04T15:39:49;2.67;;;0.90;;
17604;SDS011;8921;50.964;6.800;2023-01-04T15:42:18;2.80;;;0.90;;
17604;SDS011;8921;50.964;6.800;2023-01-04T15:45:05;2.40;;;1.07;;
17604;SDS011;8921;50.964;6.800;2023-01-04T15:47:33;2.40;;;0.90;;
17604;SDS011;8921;50.964;6.800;2023-01-04T15:50:01;2.40;;;0.87;;
17604;SDS011;8921;50.964;6.800;2023-01-04T15:52:30;2.70;;;1.00;;
17604;SDS011;8921;50.964;6.800;2023-01-04T15:54:58;2.93;;;0.90;;
17604;SDS011;8921;50.964;6.800;2023-01-04T15:57:26;4.17;;;1.20;;
17604;SDS011;8921;50.964;6.800;2023-01-04T15:59:54;2.97;;;1.50;;
17604;SDS011;8921;50.964;6.800;2023-01-04T16:02:23;2.73;;;1.00;;
17604;SDS011;8921;50.964;6.800;2023-01-04T16:04:51;2.70;;;1.00;;
17604;SDS011;8921;50.964;6.800;2023-01-04T16:07:19;5.10;;;1.50;;
17604;SDS011;8921;50.964;6.800;2023-01-04T16:09:47;2.93;;;1.13;;
17604;SDS011;8921;50.964;6.800;2023-01-04T16:12:16;4.60;;;1.20;;
17604;SDS011;8921;50.964;6.800;2023-01-04T16:15:03;3.20;;;1.20;;
17604;SDS011;8921;50.964;6.800;2023-01-04T16:17:31;3.17;;;1.20;;
17604;SDS011;8921;50.964;6.800;2023-01-04T16:19:59;2.80;;;1.10;;
17604;SDS011;8921;50.964;6.800;2023-01-04T16:22:28;6.73;;;1.00;;
17604;SDS011;8921;50.964;6.800;2023-01-04T16:24:56;3.00;;;1.30;;
17604;SDS011;8921;50.964;6.800;2023-01-04T16:27:24;2.30;;;0.87;;
17604;SDS011;8921;50.964;6.800;2023-01-04T16:29:52;6.30;;;1.00;;
17604;SDS011;8921;50.964;6.800;2023-01-04T16:32:21;2.90;;;0.90;;
17604;SDS011;8921;50.964;6.800;2023-01-04T16:34:49;3.63;;;1.10;;
17604;SDS011;8921;50.964;6.800;2023-01-04T16:37:17;2.70;;;1.10;;
17604;SDS011;8921;50.964;6.800;2023-01-04T16:39:48;6.83;;;1.30;;
17604;SDS011;8921;50.964;6.800;2023-01-04T16:42:17;5.03;;;1.00;;
17604;SDS011;8921;50.964;6.800;2023-01-04T16:44:45;2.70;;;1.20;;
17604;SDS011;8921;50.964;6.800;2023-01-04T16:47:13;4.67;;;1.93;;
17604;SDS011;8921;50.964;6.800;2023-01-04T16:49:42;3.10;;;1.10;;
17604;SDS011;8921;50.964;6.800;2023-01-04T16:52:10;2.57;;;1.00;;
17604;SDS011;8921;50.964;6.800;2023-01-04T16:54:38;2.80;;;1.07;;
17604;SDS011;8921;50.964;6.800;2023-01-04T16:57:06;2.57;;;1.00;;
17604;SDS011;8921;50.964;6.800;2023-01-04T16:59:35;2.40;;;1.10;;
17604;SDS011;8921;50.964;6.800;2023-01-04T17:02:03;2.40;;;1.03;;
17604;SDS011;8921;50.964;6.800;2023-01-04T17:04:31;3.57;;;1.00;;
17604;SDS011;8921;50.964;6.800;2023-01-04T17:06:59;5.53;;;1.10;;
17604;SDS011;8921;50.964;6.800;2023-01-04T17:09:28;5.33;;;1.27;;
17604;SDS011;8921;50.964;6.800;2023-01-04T17:11:56;6.60;;;2.60;;
17604;SDS011;8921;50.964;6.800;2023-01-04T17:14:25;6.57;;;2.83;;
17604;SDS011;8921;50.964;6.800;2023-01-04T17:16:53;4.37;;;2.03;;
17604;SDS011;8921;50.964;6.800;2023-01-04T17:19:21;4.90;;;1.40;;
17604;SDS011;8921;50.964;6.800;2023-01-04T17:21:49;4.90;;;1.60;;
17604;SDS011;8921;50.964;6.800;2023-01-04T17:24:17;5.37;;;1.63;;
17604;SDS011;8921;50.964;6.800;2023-01-04T17:26:46;14.50;;;2.17;;